sensor_id;sensor_type;location;lat;lon;timestamp;P1;durP1;ratioP1;P2;durP2;ratioP2
5175;SDS011;2607;50.934;6.934;2023-04-25T00:01:20;7.93;;;4.10;;
5175;SDS011;2607;50.934;6.934;2023-04-25T00:03:49;10.37;;;4.20;;
5175;SDS011;2607;50.934;6.934;2023-04-25T00:06:15;4.27;;;3.87;;
5175;SDS011;2607;50.934;6.934;2023-04-25T00:08:42;9.53;;;4.30;;
5175;SDS011;2607;50.934;6.934;2023-04-25T00:11:08;9.30;;;5.03;;
5175;SDS011;2607;50.934;6.934;2023-04-25T00:13:34;10.63;;;4.77;;
5175;SDS011;2607;50.934;6.934;2023-04-25T00:15:59;11.37;;;5.07;;
5175;SDS011;2607;50.934;6.934;2023-04-25T00:18:25;11.70;;;5.17;;
5175;SDS011;2607;50.934;6.934;2023-04-25T00:20:53;8.97;;;4.23;;
5175;SDS011;2607;50.934;6.934;2023-04-25T00:23:19;6.80;;;4.40;;
5175;SDS011;2607;50.934;6.934;2023-04-25T00:25:45;8.90;;;4.20;;
5175;SDS011;2607;50.934;6.934;2023-04-25T00:28:12;10.07;;;4.70;;
5175;SDS011;2607;50.934;6.934;2023-04-25T00:30:38;12.77;;;5.27;;
5175;SDS011;2607;50.934;6.934;2023-04-25T00:33:04;8.90;;;4.40;;
5175;SDS011;2607;50.934;6.934;2023-04-25T00:35:30;7.27;;;4.60;;
5175;SDS011;2607;50.934;6.934;2023-04-25T00:37:55;15.93;;;5.07;;
5175;SDS011;2607;50.934;6.934;2023-04-25T00:40:21;7.00;;;4.57;;
5175;SDS011;2607;50.934;6.934;2023-04-25T00:42:47;9.40;;;3.80;;
5175;SDS011;2607;50.934;6.934;2023-04-25T00:45:13;8.33;;;5.10;;
5175;SDS011;2607;50.934;6.934;2023-04-25T00:47:42;10.13;;;4.53;;
5175;SDS011;2607;50.934;6.934;2023-04-25T00:50:08;8.77;;;4.87;;
5175;SDS011;2607;50.934;6.934;2023-04-25T00:52:35;9.97;;;5.30;;
5175;SDS011;2607;50.934;6.934;2023-04-25T00:55:02;11.87;;;4.57;;
5175;SDS011;2607;50.934;6.934;2023-04-25T00:57:28;6.67;;;4.50;;
5175;SDS011;2607;50.934;6.934;2023-04-25T00:59:54;8.90;;;4.63;;
5175;SDS011;2607;50.934;6.934;2023-04-25T01:02:20;15.23;;;4.67;;
5175;SDS011;2607;50.934;6.934;2023-04-25T01:04:47;12.10;;;5.50;;
5175;SDS011;2607;50.934;6.934;2023-04-25T01:07:13;9.03;;;4.60;;
5175;SDS011;2607;50.934;6.934;2023-04-25T01:09:40;11.60;;;5.07;;
5175;SDS011;2607;50.934;6.934;2023-04-25T01:12:06;12.47;;;4.80;;
5175;SDS011;2607;50.934;6.934;2023-04-25T01:14:32;10.37;;;4.63;;
5175;SDS011;2607;50.934;6.934;2023-04-25T01:16:58;14.87;;;5.10;;
5175;SDS011;2607;50.934;6.934;2023-04-25T01:19:24;17.17;;;5.43;;
5175;SDS011;2607;50.934;6.934;2023-04-25T01:21:50;11.20;;;5.10;;
5175;SDS011;2607;50.934;6.934;2023-04-25T01:24:16;17.37;;;4.80;;
5175;SDS011;2607;50.934;6.934;2023-04-25T01:26:42;10.83;;;5.10;;
5175;SDS011;2607;50.934;6.934;2023-04-25T01:29:14;23.17;;;7.30;;
5175;SDS011;2607;50.934;6.934;2023-04-25T01:31:43;9.60;;;4.57;;
5175;SDS011;2607;50.934;6.934;2023-04-25T01:34:09;8.40;;;4.73;;
5175;SDS011;2607;50.934;6.934;2023-04-25T01:36:36;16.57;;;5.00;;
5175;SDS011;2607;50.934;6.934;2023-04-25T01:39:01;16.00;;;5.17;;
5175;SDS011;2607;50.934;6.934;2023-04-25T01:41:27;10.40;;;4.43;;
5175;SDS011;2607;50.934;6.934;2023-04-25T01:43:53;9.60;;;4.90;;
5175;SDS011;2607;50.934;6.934;2023-04-25T01:46:19;9.90;;;4.90;;
5175;SDS011;2607;50.934;6.934;2023-04-25T01:48:44;11.37;;;4.83;;
5175;SDS011;2607;50.934;6.934;2023-04-25T01:51:11;9.30;;;5.17;;
5175;SDS011;2607;50.934;6.934;2023-04-25T01:53:38;7.97;;;4.90;;
5175;SDS011;2607;50.934;6.934;2023-04-25T01:56:04;13.10;;;5.20;;
5175;SDS011;2607;50.934;6.934;2023-04-25T01:58:30;11.93;;;5.03;;
5175;SDS011;2607;50.934;6.934;2023-04-25T02:00:55;11.20;;;5.90;;
5175;SDS011;2607;50.934;6.934;2023-04-25T02:03:21;14.83;;;4.37;;
5175;SDS011;2607;50.934;6.934;2023-04-25T02:05:47;17.83;;;4.70;;
5175;SDS011;2607;50.934;6.934;2023-04-25T02:08:13;11.10;;;5.30;;
5175;SDS011;2607;50.934;6.934;2023-04-25T02:10:38;10.70;;;4.80;;
5175;SDS011;2607;50.934;6.934;2023-04-25T02:13:04;10.03;;;5.43;;
5175;SDS011;2607;50.934;6.934;2023-04-25T02:15:30;14.43;;;4.77;;
5175;SDS011;2607;50.934;6.934;2023-04-25T02:17:56;10.00;;;4.97;;
5175;SDS011;2607;50.934;6.934;2023-04-25T02:20:23;15.73;;;5.00;;
5175;SDS011;2607;50.934;6.934;2023-04-25T02:22:49;17.40;;;5.30;;
5175;SDS011;2607;50.934;6.934;2023-04-25T02:25:16;13.13;;;5.20;;
5175;SDS011;2607;50.934;6.934;2023-04-25T02:27:42;14.13;;;4.50;;
5175;SDS011;2607;50.934;6.934;2023-04-25T02:30:08;8.47;;;4.67;;
5175;SDS011;2607;50.934;6.934;2023-04-25T02:32:34;16.03;;;5.50;;
5175;SDS011;2607;50.934;6.934;2023-04-25T02:35:00;18.17;;;5.37;;
5175;SDS011;2607;50.934;6.934;2023-04-25T02:37:28;10.60;;;4.50;;
5175;SDS011;2607;50.934;6.934;2023-04-25T02:39:54;10.77;;;4.50;;
5175;SDS011;2607;50.934;6.934;2023-04-25T02:42:20;10.63;;;3.83;;
5175;SDS011;2607;50.934;6.934;2023-04-25T02:44:45;10.60;;;4.67;;
5175;SDS011;2607;50.934;6.934;2023-04-25T02:47:11;9.50;;;4.10;;
5175;SDS011;2607;50.934;6.934;2023-04-25T02:49:36;9.83;;;5.23;;
5175;SDS011;2607;50.934;6.934;2023-04-25T02:52:02;12.03;;;4.63;;
5175;SDS011;2607;50.934;6.934;2023-04-25T02:54:27;7.83;;;4.67;;
5175;SDS011;2607;50.934;6.934;2023-04-25T02:56:53;12.33;;;4.60;;
5175;SDS011;2607;50.934;6.934;2023-04-25T02:59:19;13.93;;;4.90;;
5175;SDS011;2607;50.934;6.934;2023-04-25T03:01:44;9.20;;;4.50;;
5175;SDS011;2607;50.934;6.934;2023-04-25T03:04:10;10.37;;;4.33;;
5175;SDS011;2607;50.934;6.934;2023-04-25T03:06:35;12.13;;;4.47;;
5175;SDS011;2607;50.934;6.934;2023-04-25T03:09:01;11.73;;;4.33;;
5175;SDS011;2607;50.934;6.934;2023-04-25T03:11:27;8.13;;;4.10;;
5175;SDS011;2607;50.934;6.934;2023-04-25T03:13:52;5.00;;;3.60;;
5175;SDS011;2607;50.934;6.934;2023-04-25T03:16:18;9.80;;;4.03;;
5175;SDS011;2607;50.934;6.934;2023-04-25T03:18:43;10.23;;;5.50;;
5175;SDS011;2607;50.934;6.934;2023-04-25T03:21:09;13.13;;;4.37;;
5175;SDS011;2607;50.934;6.934;2023-04-25T03:23:34;11.50;;;4.17;;
5175;SDS011;2607;50.934;6.934;2023-04-25T03:26:00;6.13;;;4.20;;
5175;SDS011;2607;50.934;6.934;2023-04-25T03:28:25;5.93;;;5.33;;
5175;SDS011;2607;50.934;6.934;2023-04-25T03:30:51;10.23;;;4.10;;
5175;SDS011;2607;50.934;6.934;2023-04-25T03:33:16;12.90;;;5.00;;
5175;SDS011;2607;50.934;6.934;2023-04-25T03:35:42;6.13;;;3.87;;
5175;SDS011;2607;50.934;6.934;2023-04-25T03:38:08;9.70;;;4.17;;
5175;SDS011;2607;50.934;6.934;2023-04-25T03:40:33;8.77;;;4.90;;
5175;SDS011;2607;50.934;6.934;2023-04-25T03:42:59;11.57;;;4.83;;
5175;SDS011;2607;50.934;6.934;2023-04-25T03:45:24;8.47;;;4.60;;
5175;SDS011;2607;50.934;6.934;2023-04-25T03:47:50;9.67;;;5.47;;
5175;SDS011;2607;50.934;6.934;2023-04-25T03:50:16;15.67;;;5.40;;
5175;SDS011;2607;50.934;6.934;2023-04-25T03:52:42;9.33;;;4.73;;
5175;SDS011;2607;50.934;6.934;2023-04-25T03:55:08;10.53;;;5.27;;
5175;SDS011;2607;50.934;6.934;2023-04-25T03:57:34;10.30;;;5.10;;
5175;SDS011;2607;50.934;6.934;2023-04-25T04:00:00;6.17;;;4.33;;
5175;SDS011;2607;50.934;6.934;2023-04-25T04:02:26;7.03;;;4.90;;
5175;SDS011;2607;50.934;6.934;2023-04-25T04:04:51;11.73;;;4.80;;
5175;SDS011;2607;50.934;6.934;2023-04-25T04:07:17;12.10;;;4.70;;
5175;SDS011;2607;50.934;6.934;2023-04-25T04:09:42;15.00;;;5.40;;
5175;SDS011;2607;50.934;6.934;2023-04-25T04:12:08;11.07;;;4.97;;
5175;SDS011;2607;50.934;6.934;2023-04-25T04:14:34;9.80;;;5.80;;
5175;SDS011;2607;50.934;6.934;2023-04-25T04:16:59;8.40;;;4.50;;
5175;SDS011;2607;50.934;6.934;2023-04-25T04:19:25;8.37;;;4.50;;
5175;SDS011;2607;50.934;6.934;2023-04-25T04:21:51;6.70;;;4.17;;
5175;SDS011;2607;50.934;6.934;2023-04-25T04:24:16;7.43;;;5.00;;
5175;SDS011;2607;50.934;6.934;2023-04-25T04:26:42;7.60;;;4.47;;
5175;SDS011;2607;50.934;6.934;2023-04-25T04:29:09;9.30;;;5.67;;
5175;SDS011;2607;50.934;6.934;2023-04-25T04:31:35;15.50;;;8.87;;
5175;SDS011;2607;50.934;6.934;2023-04-25T04:34:01;13.27;;;5.13;;
5175;SDS011;2607;50.934;6.934;2023-04-25T04:36:28;7.70;;;4.80;;
5175;SDS011;2607;50.934;6.934;2023-04-25T04:38:54;7.43;;;4.50;;
5175;SDS011;2607;50.934;6.934;2023-04-25T04:41:21;9.80;;;4.30;;
5175;SDS011;2607;50.934;6.934;2023-04-25T04:43:47;16.30;;;5.00;;
5175;SDS011;2607;50.934;6.934;2023-04-25T04:46:12;15.23;;;5.07;;
5175;SDS011;2607;50.934;6.934;2023-04-25T04:48:38;10.57;;;4.60;;
5175;SDS011;2607;50.934;6.934;2023-04-25T04:51:05;8.90;;;5.10;;
5175;SDS011;2607;50.934;6.934;2023-04-25T04:53:31;19.07;;;5.63;;
5175;SDS011;2607;50.934;6.934;2023-04-25T04:55:57;19.63;;;5.40;;
5175;SDS011;2607;50.934;6.934;2023-04-25T04:58:23;6.67;;;4.90;;
5175;SDS011;2607;50.934;6.934;2023-04-25T05:00:48;13.13;;;5.00;;
5175;SDS011;2607;50.934;6.934;2023-04-25T05:03:14;7.10;;;4.67;;
5175;SDS011;2607;50.934;6.934;2023-04-25T05:05:40;10.20;;;6.03;;
5175;SDS011;2607;50.934;6.934;2023-04-25T05:08:06;12.30;;;5.03;;
5175;SDS011;2607;50.934;6.934;2023-04-25T05:10:32;12.07;;;5.10;;
5175;SDS011;2607;50.934;6.934;2023-04-25T05:12:58;16.00;;;4.93;;
5175;SDS011;2607;50.934;6.934;2023-04-25T05:15:24;14.10;;;5.37;;
5175;SDS011;2607;50.934;6.934;2023-04-25T05:17:49;14.53;;;5.97;;
5175;SDS011;2607;50.934;6.934;2023-04-25T05:20:15;8.57;;;3.90;;
5175;SDS011;2607;50.934;6.934;2023-04-25T05:22:41;10.17;;;4.50;;
5175;SDS011;2607;50.934;6.934;2023-04-25T05:25:07;7.37;;;4.90;;
5175;SDS011;2607;50.934;6.934;2023-04-25T05:27:33;7.10;;;4.20;;
5175;SDS011;2607;50.934;6.934;2023-04-25T05:29:59;14.33;;;5.03;;
5175;SDS011;2607;50.934;6.934;2023-04-25T05:32:24;6.37;;;4.17;;
5175;SDS011;2607;50.934;6.934;2023-04-25T05:34:50;7.83;;;4.53;;
5175;SDS011;2607;50.934;6.934;2023-04-25T05:37:16;16.40;;;4.57;;
5175;SDS011;2607;50.934;6.934;2023-04-25T05:39:42;15.17;;;4.80;;
5175;SDS011;2607;50.934;6.934;2023-04-25T05:42:08;14.53;;;4.73;;
5175;SDS011;2607;50.934;6.934;2023-04-25T05:44:33;11.00;;;4.70;;
5175;SDS011;2607;50.934;6.934;2023-04-25T05:46:59;10.53;;;4.67;;
5175;SDS011;2607;50.934;6.934;2023-04-25T05:49:24;13.03;;;5.20;;
5175;SDS011;2607;50.934;6.934;2023-04-25T05:51:50;16.50;;;4.90;;
5175;SDS011;2607;50.934;6.934;2023-04-25T05:54:16;14.73;;;4.73;;
5175;SDS011;2607;50.934;6.934;2023-04-25T05:56:41;8.60;;;4.10;;
5175;SDS011;2607;50.934;6.934;2023-04-25T05:59:07;10.03;;;4.97;;
5175;SDS011;2607;50.934;6.934;2023-04-25T06:01:32;8.20;;;5.10;;
5175;SDS011;2607;50.934;6.934;2023-04-25T06:03:58;12.00;;;4.90;;
5175;SDS011;2607;50.934;6.934;2023-04-25T06:06:23;12.07;;;4.60;;
5175;SDS011;2607;50.934;6.934;2023-04-25T06:08:49;10.93;;;4.83;;
5175;SDS011;2607;50.934;6.934;2023-04-25T06:11:15;12.87;;;4.93;;
5175;SDS011;2607;50.934;6.934;2023-04-25T06:13:41;7.70;;;4.80;;
5175;SDS011;2607;50.934;6.934;2023-04-25T06:16:06;16.47;;;5.27;;
5175;SDS011;2607;50.934;6.934;2023-04-25T06:18:32;14.03;;;4.87;;
5175;SDS011;2607;50.934;6.934;2023-04-25T06:20:58;13.63;;;5.83;;
5175;SDS011;2607;50.934;6.934;2023-04-25T06:23:23;12.87;;;4.60;;
5175;SDS011;2607;50.934;6.934;2023-04-25T06:25:49;13.57;;;4.63;;
5175;SDS011;2607;50.934;6.934;2023-04-25T06:28:14;4.50;;;3.93;;
5175;SDS011;2607;50.934;6.934;2023-04-25T06:30:40;9.00;;;4.00;;
5175;SDS011;2607;50.934;6.934;2023-04-25T06:33:05;12.13;;;4.33;;
5175;SDS011;2607;50.934;6.934;2023-04-25T06:35:33;10.23;;;4.17;;
5175;SDS011;2607;50.934;6.934;2023-04-25T06:37:59;13.33;;;4.53;;
5175;SDS011;2607;50.934;6.934;2023-04-25T06:40:25;11.57;;;4.07;;
5175;SDS011;2607;50.934;6.934;2023-04-25T06:42:50;9.53;;;4.50;;
5175;SDS011;2607;50.934;6.934;2023-04-25T06:45:16;10.40;;;4.10;;
5175;SDS011;2607;50.934;6.934;2023-04-25T06:47:41;10.60;;;5.10;;
5175;SDS011;2607;50.934;6.934;2023-04-25T06:50:07;8.07;;;4.60;;
5175;SDS011;2607;50.934;6.934;2023-04-25T06:52:33;19.37;;;4.77;;
5175;SDS011;2607;50.934;6.934;2023-04-25T06:54:59;12.00;;;4.50;;
5175;SDS011;2607;50.934;6.934;2023-04-25T06:57:24;12.83;;;4.93;;
5175;SDS011;2607;50.934;6.934;2023-04-25T06:59:50;14.97;;;5.53;;
5175;SDS011;2607;50.934;6.934;2023-04-25T07:02:16;9.77;;;3.97;;
5175;SDS011;2607;50.934;6.934;2023-04-25T07:04:41;7.00;;;4.53;;
5175;SDS011;2607;50.934;6.934;2023-04-25T07:07:07;11.27;;;3.93;;
5175;SDS011;2607;50.934;6.934;2023-04-25T07:09:33;9.13;;;3.47;;
5175;SDS011;2607;50.934;6.934;2023-04-25T07:11:59;12.13;;;4.87;;
5175;SDS011;2607;50.934;6.934;2023-04-25T07:14:26;9.93;;;4.00;;
5175;SDS011;2607;50.934;6.934;2023-04-25T07:16:52;10.20;;;3.57;;
5175;SDS011;2607;50.934;6.934;2023-04-25T07:19:17;16.87;;;3.27;;
5175;SDS011;2607;50.934;6.934;2023-04-25T07:21:43;11.13;;;3.43;;
5175;SDS011;2607;50.934;6.934;2023-04-25T07:24:08;8.30;;;3.33;;
5175;SDS011;2607;50.934;6.934;2023-04-25T07:26:34;9.60;;;3.20;;
5175;SDS011;2607;50.934;6.934;2023-04-25T07:29:00;9.20;;;3.37;;
5175;SDS011;2607;50.934;6.934;2023-04-25T07:31:25;6.20;;;2.90;;
5175;SDS011;2607;50.934;6.934;2023-04-25T07:33:51;9.67;;;3.60;;
5175;SDS011;2607;50.934;6.934;2023-04-25T07:36:17;10.33;;;3.33;;
5175;SDS011;2607;50.934;6.934;2023-04-25T07:38:42;11.17;;;3.40;;
5175;SDS011;2607;50.934;6.934;2023-04-25T07:41:08;8.80;;;2.90;;
5175;SDS011;2607;50.934;6.934;2023-04-25T07:43:33;10.23;;;3.17;;
5175;SDS011;2607;50.934;6.934;2023-04-25T07:45:59;5.87;;;3.40;;
5175;SDS011;2607;50.934;6.934;2023-04-25T07:48:25;8.37;;;4.30;;
5175;SDS011;2607;50.934;6.934;2023-04-25T07:50:50;9.93;;;3.90;;
5175;SDS011;2607;50.934;6.934;2023-04-25T07:53:16;3.90;;;3.13;;
5175;SDS011;2607;50.934;6.934;2023-04-25T07:55:42;8.10;;;3.53;;
5175;SDS011;2607;50.934;6.934;2023-04-25T07:58:08;14.97;;;4.27;;
5175;SDS011;2607;50.934;6.934;2023-04-25T08:00:35;13.67;;;3.40;;
5175;SDS011;2607;50.934;6.934;2023-04-25T08:03:01;6.63;;;3.00;;
5175;SDS011;2607;50.934;6.934;2023-04-25T08:05:27;8.37;;;3.33;;
5175;SDS011;2607;50.934;6.934;2023-04-25T08:07:53;7.97;;;3.43;;
5175;SDS011;2607;50.934;6.934;2023-04-25T08:10:18;13.33;;;4.70;;
5175;SDS011;2607;50.934;6.934;2023-04-25T08:12:44;11.37;;;4.40;;
5175;SDS011;2607;50.934;6.934;2023-04-25T08:15:10;9.03;;;4.03;;
5175;SDS011;2607;50.934;6.934;2023-04-25T08:17:35;7.27;;;3.40;;
5175;SDS011;2607;50.934;6.934;2023-04-25T08:20:01;4.70;;;3.00;;
5175;SDS011;2607;50.934;6.934;2023-04-25T08:22:30;11.10;;;3.23;;
5175;SDS011;2607;50.934;6.934;2023-04-25T08:24:56;9.20;;;4.00;;
5175;SDS011;2607;50.934;6.934;2023-04-25T08:27:21;7.67;;;3.07;;
5175;SDS011;2607;50.934;6.934;2023-04-25T08:29:48;8.60;;;3.70;;
5175;SDS011;2607;50.934;6.934;2023-04-25T08:32:14;7.77;;;2.97;;
5175;SDS011;2607;50.934;6.934;2023-04-25T08:34:39;7.13;;;3.27;;
5175;SDS011;2607;50.934;6.934;2023-04-25T08:37:07;5.33;;;2.57;;
5175;SDS011;2607;50.934;6.934;2023-04-25T08:39:34;8.67;;;3.10;;
5175;SDS011;2607;50.934;6.934;2023-04-25T08:42:00;7.73;;;3.40;;
5175;SDS011;2607;50.934;6.934;2023-04-25T08:44:33;9.93;;;3.33;;
5175;SDS011;2607;50.934;6.934;2023-04-25T08:47:00;8.53;;;3.57;;
5175;SDS011;2607;50.934;6.934;2023-04-25T08:49:31;5.83;;;2.30;;
5175;SDS011;2607;50.934;6.934;2023-04-25T08:51:59;9.60;;;2.93;;
5175;SDS011;2607;50.934;6.934;2023-04-25T08:54:26;7.50;;;2.00;;
5175;SDS011;2607;50.934;6.934;2023-04-25T08:56:53;6.30;;;2.67;;
5175;SDS011;2607;50.934;6.934;2023-04-25T08:59:22;4.50;;;2.83;;
5175;SDS011;2607;50.934;6.934;2023-04-25T09:01:48;6.73;;;2.50;;
5175;SDS011;2607;50.934;6.934;2023-04-25T09:04:15;3.07;;;2.40;;
5175;SDS011;2607;50.934;6.934;2023-04-25T09:06:40;8.73;;;2.43;;
5175;SDS011;2607;50.934;6.934;2023-04-25T09:09:07;5.00;;;2.67;;
5175;SDS011;2607;50.934;6.934;2023-04-25T09:11:35;4.90;;;2.57;;
5175;SDS011;2607;50.934;6.934;2023-04-25T09:14:11;7.57;;;2.53;;
5175;SDS011;2607;50.934;6.934;2023-04-25T09:16:57;8.43;;;3.50;;
5175;SDS011;2607;50.934;6.934;2023-04-25T09:19:29;4.80;;;2.50;;
5175;SDS011;2607;50.934;6.934;2023-04-25T09:21:57;7.93;;;2.63;;
5175;SDS011;2607;50.934;6.934;2023-04-25T09:24:33;9.10;;;2.73;;
5175;SDS011;2607;50.934;6.934;2023-04-25T09:27:04;6.90;;;2.90;;
5175;SDS011;2607;50.934;6.934;2023-04-25T09:29:35;6.20;;;2.60;;
5175;SDS011;2607;50.934;6.934;2023-04-25T09:32:21;8.93;;;2.80;;
5175;SDS011;2607;50.934;6.934;2023-04-25T09:34:51;8.30;;;3.20;;
5175;SDS011;2607;50.934;6.934;2023-04-25T09:37:19;10.93;;;2.23;;
5175;SDS011;2607;50.934;6.934;2023-04-25T09:39:56;4.47;;;2.50;;
5175;SDS011;2607;50.934;6.934;2023-04-25T09:42:24;4.57;;;3.10;;
5175;SDS011;2607;50.934;6.934;2023-04-25T09:44:52;8.30;;;2.50;;
5175;SDS011;2607;50.934;6.934;2023-04-25T09:47:19;3.80;;;2.10;;
5175;SDS011;2607;50.934;6.934;2023-04-25T09:49:48;7.83;;;2.20;;
5175;SDS011;2607;50.934;6.934;2023-04-25T09:52:15;8.63;;;2.60;;
5175;SDS011;2607;50.934;6.934;2023-04-25T09:54:47;6.80;;;2.30;;
5175;SDS011;2607;50.934;6.934;2023-04-25T09:57:17;6.73;;;2.63;;
5175;SDS011;2607;50.934;6.934;2023-04-25T09:59:51;6.83;;;2.90;;
5175;SDS011;2607;50.934;6.934;2023-04-25T10:02:19;8.17;;;2.70;;
5175;SDS011;2607;50.934;6.934;2023-04-25T10:04:52;4.27;;;2.30;;
5175;SDS011;2607;50.934;6.934;2023-04-25T10:07:20;5.80;;;2.23;;
5175;SDS011;2607;50.934;6.934;2023-04-25T10:09:50;8.60;;;2.70;;
5175;SDS011;2607;50.934;6.934;2023-04-25T10:12:22;8.07;;;2.60;;
5175;SDS011;2607;50.934;6.934;2023-04-25T10:14:48;5.60;;;2.20;;
5175;SDS011;2607;50.934;6.934;2023-04-25T10:17:14;4.30;;;2.20;;
5175;SDS011;2607;50.934;6.934;2023-04-25T10:19:39;9.03;;;2.67;;
5175;SDS011;2607;50.934;6.934;2023-04-25T10:22:11;5.40;;;2.30;;
5175;SDS011;2607;50.934;6.934;2023-04-25T10:24:43;4.80;;;1.93;;
5175;SDS011;2607;50.934;6.934;2023-04-25T10:27:11;3.83;;;2.40;;
5175;SDS011;2607;50.934;6.934;2023-04-25T10:29:37;2.17;;;2.00;;
5175;SDS011;2607;50.934;6.934;2023-04-25T10:32:03;7.17;;;2.33;;
5175;SDS011;2607;50.934;6.934;2023-04-25T10:34:38;3.33;;;1.93;;
5175;SDS011;2607;50.934;6.934;2023-04-25T10:37:11;6.93;;;2.57;;
5175;SDS011;2607;50.934;6.934;2023-04-25T10:39:38;4.37;;;2.33;;
5175;SDS011;2607;50.934;6.934;2023-04-25T10:42:05;4.50;;;2.10;;
5175;SDS011;2607;50.934;6.934;2023-04-25T10:44:32;6.87;;;2.93;;
5175;SDS011;2607;50.934;6.934;2023-04-25T10:46:59;8.27;;;2.77;;
5175;SDS011;2607;50.934;6.934;2023-04-25T10:49:37;6.37;;;2.90;;
5175;SDS011;2607;50.934;6.934;2023-04-25T10:54:49;6.63;;;2.90;;
5175;SDS011;2607;50.934;6.934;2023-04-25T10:57:27;8.17;;;2.60;;
5175;SDS011;2607;50.934;6.934;2023-04-25T11:00:07;5.53;;;2.77;;
5175;SDS011;2607;50.934;6.934;2023-04-25T11:02:45;5.03;;;2.33;;
5175;SDS011;2607;50.934;6.934;2023-04-25T11:05:19;4.07;;;2.00;;
5175;SDS011;2607;50.934;6.934;2023-04-25T11:07:52;10.43;;;2.17;;
5175;SDS011;2607;50.934;6.934;2023-04-25T11:10:21;3.93;;;1.90;;
5175;SDS011;2607;50.934;6.934;2023-04-25T11:12:54;6.33;;;2.33;;
5175;SDS011;2607;50.934;6.934;2023-04-25T11:15:20;7.27;;;2.50;;
5175;SDS011;2607;50.934;6.934;2023-04-25T11:17:46;6.40;;;2.23;;
5175;SDS011;2607;50.934;6.934;2023-04-25T11:20:12;13.37;;;2.43;;
5175;SDS011;2607;50.934;6.934;2023-04-25T11:22:39;5.90;;;1.50;;
5175;SDS011;2607;50.934;6.934;2023-04-25T11:25:08;3.17;;;1.80;;
5175;SDS011;2607;50.934;6.934;2023-04-25T11:27:48;3.63;;;2.03;;
5175;SDS011;2607;50.934;6.934;2023-04-25T11:30:18;2.60;;;1.60;;
5175;SDS011;2607;50.934;6.934;2023-04-25T11:32:44;9.00;;;2.07;;
5175;SDS011;2607;50.934;6.934;2023-04-25T11:35:10;2.33;;;1.90;;
5175;SDS011;2607;50.934;6.934;2023-04-25T11:37:36;5.63;;;2.57;;
5175;SDS011;2607;50.934;6.934;2023-04-25T11:40:04;5.47;;;2.90;;
5175;SDS011;2607;50.934;6.934;2023-04-25T11:42:36;3.73;;;1.80;;
5175;SDS011;2607;50.934;6.934;2023-04-25T11:45:03;2.93;;;2.03;;
5175;SDS011;2607;50.934;6.934;2023-04-25T11:47:29;3.20;;;2.40;;
5175;SDS011;2607;50.934;6.934;2023-04-25T11:49:57;7.70;;;2.53;;
5175;SDS011;2607;50.934;6.934;2023-04-25T11:55:08;5.13;;;1.90;;
5175;SDS011;2607;50.934;6.934;2023-04-25T11:57:36;1.70;;;1.60;;
5175;SDS011;2607;50.934;6.934;2023-04-25T12:00:13;4.43;;;1.93;;
5175;SDS011;2607;50.934;6.934;2023-04-25T12:02:42;4.60;;;2.10;;
5175;SDS011;2607;50.934;6.934;2023-04-25T12:05:10;2.37;;;1.77;;
5175;SDS011;2607;50.934;6.934;2023-04-25T12:07:36;4.07;;;1.90;;
5175;SDS011;2607;50.934;6.934;2023-04-25T12:12:36;1.80;;;1.60;;
5175;SDS011;2607;50.934;6.934;2023-04-25T12:15:09;2.40;;;1.63;;
5175;SDS011;2607;50.934;6.934;2023-04-25T12:17:36;2.67;;;1.63;;
5175;SDS011;2607;50.934;6.934;2023-04-25T12:20:05;4.43;;;1.70;;
5175;SDS011;2607;50.934;6.934;2023-04-25T12:22:35;2.20;;;1.50;;
5175;SDS011;2607;50.934;6.934;2023-04-25T12:25:01;3.10;;;1.40;;
5175;SDS011;2607;50.934;6.934;2023-04-25T12:27:30;1.50;;;1.40;;
5175;SDS011;2607;50.934;6.934;2023-04-25T12:29:57;3.50;;;1.50;;
5175;SDS011;2607;50.934;6.934;2023-04-25T12:32:23;1.80;;;1.70;;
5175;SDS011;2607;50.934;6.934;2023-04-25T12:34:49;3.30;;;1.70;;
5175;SDS011;2607;50.934;6.934;2023-04-25T12:37:15;3.57;;;1.60;;
5175;SDS011;2607;50.934;6.934;2023-04-25T12:39:40;3.40;;;1.40;;
5175;SDS011;2607;50.934;6.934;2023-04-25T12:42:06;7.47;;;1.67;;
5175;SDS011;2607;50.934;6.934;2023-04-25T12:44:36;2.03;;;1.83;;
5175;SDS011;2607;50.934;6.934;2023-04-25T12:47:02;2.40;;;1.80;;
5175;SDS011;2607;50.934;6.934;2023-04-25T12:49:28;4.83;;;1.97;;
5175;SDS011;2607;50.934;6.934;2023-04-25T12:51:54;1.80;;;1.43;;
5175;SDS011;2607;50.934;6.934;2023-04-25T12:54:19;3.47;;;1.70;;
5175;SDS011;2607;50.934;6.934;2023-04-25T12:56:45;4.10;;;1.80;;
5175;SDS011;2607;50.934;6.934;2023-04-25T12:59:11;4.00;;;1.73;;
5175;SDS011;2607;50.934;6.934;2023-04-25T13:01:36;4.20;;;1.73;;
5175;SDS011;2607;50.934;6.934;2023-04-25T13:04:02;3.20;;;1.83;;
5175;SDS011;2607;50.934;6.934;2023-04-25T13:06:28;5.97;;;1.80;;
5175;SDS011;2607;50.934;6.934;2023-04-25T13:08:55;1.87;;;1.77;;
5175;SDS011;2607;50.934;6.934;2023-04-25T13:11:20;3.67;;;1.97;;
5175;SDS011;2607;50.934;6.934;2023-04-25T13:13:46;3.73;;;1.70;;
5175;SDS011;2607;50.934;6.934;2023-04-25T13:16:11;5.90;;;2.13;;
5175;SDS011;2607;50.934;6.934;2023-04-25T13:18:40;2.43;;;1.73;;
5175;SDS011;2607;50.934;6.934;2023-04-25T13:21:06;2.60;;;1.77;;
5175;SDS011;2607;50.934;6.934;2023-04-25T13:23:33;1.70;;;1.60;;
5175;SDS011;2607;50.934;6.934;2023-04-25T13:25:58;1.60;;;1.50;;
5175;SDS011;2607;50.934;6.934;2023-04-25T13:28:26;1.63;;;1.53;;
5175;SDS011;2607;50.934;6.934;2023-04-25T13:30:52;1.67;;;1.57;;
5175;SDS011;2607;50.934;6.934;2023-04-25T13:33:18;1.73;;;1.50;;
5175;SDS011;2607;50.934;6.934;2023-04-25T13:35:45;1.70;;;1.60;;
5175;SDS011;2607;50.934;6.934;2023-04-25T13:38:18;1.50;;;1.40;;
5175;SDS011;2607;50.934;6.934;2023-04-25T13:40:44;1.67;;;1.57;;
5175;SDS011;2607;50.934;6.934;2023-04-25T13:43:10;1.17;;;1.17;;
5175;SDS011;2607;50.934;6.934;2023-04-25T13:45:36;1.70;;;1.60;;
5175;SDS011;2607;50.934;6.934;2023-04-25T13:48:01;2.70;;;1.30;;
5175;SDS011;2607;50.934;6.934;2023-04-25T13:50:27;5.43;;;1.43;;
5175;SDS011;2607;50.934;6.934;2023-04-25T13:52:53;1.40;;;1.30;;
5175;SDS011;2607;50.934;6.934;2023-04-25T13:55:18;2.80;;;1.47;;
5175;SDS011;2607;50.934;6.934;2023-04-25T13:57:44;2.20;;;1.13;;
5175;SDS011;2607;50.934;6.934;2023-04-25T14:00:10;3.00;;;1.40;;
5175;SDS011;2607;50.934;6.934;2023-04-25T14:02:36;1.23;;;1.20;;
5175;SDS011;2607;50.934;6.934;2023-04-25T14:05:05;1.30;;;1.20;;
5175;SDS011;2607;50.934;6.934;2023-04-25T14:07:32;1.00;;;1.00;;
5175;SDS011;2607;50.934;6.934;2023-04-25T14:09:59;1.70;;;1.60;;
5175;SDS011;2607;50.934;6.934;2023-04-25T14:12:25;3.60;;;1.47;;
5175;SDS011;2607;50.934;6.934;2023-04-25T14:14:51;5.33;;;1.37;;
5175;SDS011;2607;50.934;6.934;2023-04-25T14:17:18;1.53;;;1.50;;
5175;SDS011;2607;50.934;6.934;2023-04-25T14:19:44;4.33;;;1.43;;
5175;SDS011;2607;50.934;6.934;2023-04-25T14:22:10;3.80;;;1.60;;
5175;SDS011;2607;50.934;6.934;2023-04-25T14:24:36;2.07;;;1.60;;
5175;SDS011;2607;50.934;6.934;2023-04-25T14:27:02;1.67;;;1.33;;
5175;SDS011;2607;50.934;6.934;2023-04-25T14:29:29;1.40;;;1.30;;
5175;SDS011;2607;50.934;6.934;2023-04-25T14:31:54;2.33;;;1.40;;
5175;SDS011;2607;50.934;6.934;2023-04-25T14:34:22;2.33;;;1.47;;
5175;SDS011;2607;50.934;6.934;2023-04-25T14:36:48;2.07;;;1.97;;
5175;SDS011;2607;50.934;6.934;2023-04-25T14:39:13;1.30;;;1.10;;
5175;SDS011;2607;50.934;6.934;2023-04-25T14:41:39;1.20;;;1.10;;
5175;SDS011;2607;50.934;6.934;2023-04-25T14:44:05;2.57;;;1.17;;
5175;SDS011;2607;50.934;6.934;2023-04-25T14:46:30;2.63;;;1.33;;
5175;SDS011;2607;50.934;6.934;2023-04-25T14:48:56;2.70;;;2.47;;
5175;SDS011;2607;50.934;6.934;2023-04-25T14:51:22;3.03;;;2.20;;
5175;SDS011;2607;50.934;6.934;2023-04-25T14:53:48;2.83;;;2.63;;
5175;SDS011;2607;50.934;6.934;2023-04-25T14:56:13;3.80;;;2.40;;
5175;SDS011;2607;50.934;6.934;2023-04-25T14:58:39;5.23;;;2.00;;
5175;SDS011;2607;50.934;6.934;2023-04-25T15:01:05;1.73;;;1.63;;
5175;SDS011;2607;50.934;6.934;2023-04-25T15:03:31;1.53;;;1.43;;
5175;SDS011;2607;50.934;6.934;2023-04-25T15:05:57;1.60;;;1.50;;
5175;SDS011;2607;50.934;6.934;2023-04-25T15:08:23;5.70;;;2.30;;
5175;SDS011;2607;50.934;6.934;2023-04-25T15:10:48;4.10;;;3.23;;
5175;SDS011;2607;50.934;6.934;2023-04-25T15:13:14;1.73;;;1.63;;
5175;SDS011;2607;50.934;6.934;2023-04-25T15:15:40;5.70;;;1.83;;